Bay Head, New Jersey
Current Conditions -  °F | °C
As of 5:15 PM on Saturday 25 Oct 2014 (Local Time) from KBLM Reporting Station
Clear Clear  
Wind Chill: 64°   Ceiling: Unl
Heat Index: 64°   Visibility: 10mi
Dew Point: 43°   Wind: 10mph
Humidity: 45%   Direction: 250°WSW
Pressure: 29.69"   Gusts: NA
Location:  40.0839°N, 74.0496°W
Report Text: KBLM 252115Z AUTO 25009KT 10SM CLR 18/06 A2969 RMK AO1
Loading
Personal Weather Stations






























Interactive Weather Map
Tropical Storm Tracking
New forecast layout! Learn more

10-Day Weather Forecast

Advertisements
Track Severe Weather on mobile